Time;durP1;ratioP1;P1;durP2;ratioP2;P2;SDS_P1;SDS_P2;PMS_P1;PMS_P2;Temp;Humidity;BMP_temperature;BMP_pressure;BME280_temperature;BME280_humidity;BME280_pressure;Samples;Min_cycle;Max_cycle;Signal;HPM_P1;HPM_P2
2021/03/24 00:00:23;;;;;;;;;;;;;;;5.89;77.63;102282.38;5055792;28;1803;-72
2021/03/24 00:02:48;;;;;;;;;;;;;;;5.90;77.98;102278.56;5055587;28;1864;-72
2021/03/24 00:05:17;;;;;;;;;;;;;;;5.90;77.68;102278.56;5054920;28;1880;-72
2021/03/24 00:07:43;;;;;;;;;;;;;;;5.91;77.75;102282.13;5055508;28;1725;-72
2021/03/24 00:10:10;;;;;;;;;;;;;;;5.91;77.98;102282.94;5055733;28;1278;-72
2021/03/24 00:12:38;;;;;;;;;;;;;;;5.91;77.83;102273.88;5055385;28;1786;-72
2021/03/24 00:15:09;;;;;;;;;;;;;;;5.94;78.23;102273.34;5055582;28;1070;-72
2021/03/24 00:17:35;;;;;;;;;;;;;;;5.94;78.09;102276.91;5055330;28;2313;-72
2021/03/24 00:20:00;;;;;;;;;;;;;;;5.96;78.07;102273.91;5055840;28;1361;-72
2021/03/24 00:22:27;;;;;;;;;;;;;;;5.96;78.01;102273.91;5055524;28;1668;-72
2021/03/24 00:24:52;;;;;;;;;;;;;;;5.96;78.09;102276.66;5055329;28;956;-72
2021/03/24 00:27:17;;;;;;;;;;;;;;;5.93;77.99;102277.16;5054928;28;980;-72
2021/03/24 00:29:43;;;;;;;;;;;;;;;5.90;78.30;102273.06;5054991;28;1872;-72
2021/03/24 00:32:09;;;;;;;;;;;;;;;5.96;78.29;102268.44;5055563;28;984;-72
2021/03/24 00:34:34;;;;;;;;;;;;;;;5.97;77.93;102273.63;5054752;28;1898;-72
2021/03/24 00:37:00;;;;;;;;;;;;;;;5.95;77.84;102267.59;5055499;28;1894;-72
2021/03/24 00:39:25;;;;;;;;;;;;;;;5.88;78.16;102264.28;5054586;28;1877;-72
2021/03/24 00:41:51;;;;;;;;;;;;;;;5.84;78.34;102264.00;5031754;28;1769;-72
2021/03/24 00:44:16;;;;;;;;;;;;;;;5.82;78.33;102268.97;5035739;28;1062;-72
2021/03/24 00:46:42;;;;;;;;;;;;;;;5.84;78.53;102268.69;5038252;28;1817;-72
2021/03/24 00:49:07;;;;;;;;;;;;;;;5.85;78.54;102273.09;5037193;28;1399;-72
2021/03/24 00:51:32;;;;;;;;;;;;;;;5.86;78.38;102266.47;5054830;28;1828;-73
2021/03/24 00:53:58;;;;;;;;;;;;;;;5.86;78.25;102263.75;5036969;28;1376;-72
2021/03/24 00:56:23;;;;;;;;;;;;;;;5.87;78.34;102262.66;5054484;28;1730;-73
2021/03/24 00:58:49;;;;;;;;;;;;;;;5.89;78.47;102259.63;5054729;28;1905;-72
2021/03/24 01:01:14;;;;;;;;;;;;;;;5.88;78.58;102258.00;5055159;28;984;-72
2021/03/24 01:03:39;;;;;;;;;;;;;;;5.89;78.42;102265.13;5040444;28;1849;-72
2021/03/24 01:06:05;;;;;;;;;;;;;;;5.89;78.22;102254.16;5016966;28;1334;-73
2021/03/24 01:08:30;;;;;;;;;;;;;;;5.91;78.16;102255.50;5050366;28;1905;-73
2021/03/24 01:10:56;;;;;;;;;;;;;;;5.89;78.19;102245.94;5056605;28;814;-73
2021/03/24 01:13:24;;;;;;;;;;;;;;;5.88;78.26;102249.75;5055395;28;1809;-72
2021/03/24 01:15:50;;;;;;;;;;;;;;;5.88;78.32;102245.09;5054062;28;1022;-72
2021/03/24 01:18:16;;;;;;;;;;;;;;;5.89;77.95;102254.16;5036571;28;1902;-72
2021/03/24 01:20:43;;;;;;;;;;;;;;;5.89;78.14;102248.69;5055593;28;980;-72
2021/03/24 01:23:09;;;;;;;;;;;;;;;5.87;77.98;102242.66;5054534;28;1858;-72
2021/03/24 01:25:35;;;;;;;;;;;;;;;5.83;78.33;102253.31;5054495;28;873;-72
2021/03/24 01:28:03;;;;;;;;;;;;;;;5.82;78.48;102246.22;5054000;28;1746;-72
2021/03/24 01:30:31;;;;;;;;;;;;;;;5.81;78.22;102248.16;5054643;28;1087;-72
2021/03/24 01:32:56;;;;;;;;;;;;;;;5.80;78.72;102249.22;5053945;28;1651;-72
2021/03/24 01:35:22;;;;;;;;;;;;;;;5.76;78.42;102245.41;5053939;28;1650;-72
2021/03/24 01:37:48;;;;;;;;;;;;;;;5.74;78.74;102246.78;5053977;28;1987;-72
2021/03/24 01:40:25;;;;;;;;;;;;;;;5.70;78.90;102243.75;5036034;28;1798;-72
2021/03/24 01:42:51;;;;;;;;;;;;;;;5.68;78.86;102239.66;5054387;28;1829;-72
2021/03/24 01:45:17;;;;;;;;;;;;;;;5.64;78.70;102242.97;5053969;28;1862;-72
2021/03/24 01:47:44;;;;;;;;;;;;;;;5.62;78.88;102241.56;5054454;28;866;-72
2021/03/24 01:50:15;;;;;;;;;;;;;;;5.62;79.18;102241.56;5054051;28;1847;-72
2021/03/24 01:52:42;;;;;;;;;;;;;;;5.60;79.18;102241.03;5054389;28;1048;-72
2021/03/24 01:55:08;;;;;;;;;;;;;;;5.60;79.29;102252.00;5054233;28;1886;-72
2021/03/24 01:57:38;;;;;;;;;;;;;;;5.59;79.22;102251.19;5053771;28;1973;-72
2021/03/24 02:00:11;;;;;;;;;;;;;;;5.57;79.28;102247.91;5054071;28;1922;-72
2021/03/24 02:02:37;;;;;;;;;;;;;;;5.55;79.49;102249.25;5054554;28;929;-72
2021/03/24 02:05:03;;;;;;;;;;;;;;;5.52;80.18;102247.91;5054117;28;1905;-72
2021/03/24 02:07:39;;;;;;;;;;;;;;;5.48;79.95;102249.53;5053910;28;996;-72
2021/03/24 02:10:14;;;;;;;;;;;;;;;5.43;80.23;102244.06;5053699;28;1946;-72
2021/03/24 02:12:46;;;;;;;;;;;;;;;5.38;80.51;102244.06;5054300;28;1004;-72
2021/03/24 02:15:21;;;;;;;;;;;;;;;5.34;80.78;102245.72;5054037;28;2595;-72
2021/03/24 02:17:47;;;;;;;;;;;;;;;5.30;80.61;102242.69;5036128;28;1906;-72
2021/03/24 02:20:23;;;;;;;;;;;;;;;5.25;81.00;102234.47;5053890;28;1609;-72
2021/03/24 02:22:56;;;;;;;;;;;;;;;5.21;81.18;102242.44;5053495;28;1930;-72
2021/03/24 02:25:33;;;;;;;;;;;;;;;5.15;81.13;102235.28;5036692;28;1383;-72
2021/03/24 02:28:02;;;;;;;;;;;;;;;5.12;81.29;102232.28;5056228;28;1908;-72
2021/03/24 02:30:33;;;;;;;;;;;;;;;5.07;81.32;102230.38;5057611;28;2212;-72
2021/03/24 02:33:24;;;;;;;;;;;;;;;5.04;81.79;102228.19;5056855;28;1665;-72
2021/03/24 02:35:53;;;;;;;;;;;;;;;4.97;81.69;102228.44;5047663;28;1112;-72
2021/03/24 02:38:22;;;;;;;;;;;;;;;4.94;81.96;102226.25;5056742;28;1955;-72
2021/03/24 02:40:49;;;;;;;;;;;;;;;4.92;82.39;102231.16;5057152;28;1767;-72
2021/03/24 02:43:16;;;;;;;;;;;;;;;4.84;82.35;102234.44;5057512;28;859;-72
2021/03/24 02:45:45;;;;;;;;;;;;;;;4.79;82.43;102231.69;5057060;28;1788;-72
2021/03/24 02:48:15;;;;;;;;;;;;;;;4.75;82.76;102233.34;5056700;28;1282;-72
2021/03/24 02:50:44;;;;;;;;;;;;;;;4.69;82.31;102227.84;5057073;28;1919;-72
2021/03/24 02:53:12;;;;;;;;;;;;;;;4.66;82.31;102228.38;5057265;28;897;-72
2021/03/24 02:55:41;;;;;;;;;;;;;;;4.62;82.57;102227.28;5056980;28;1852;-72
2021/03/24 02:58:09;;;;;;;;;;;;;;;4.60;82.72;102228.63;5056319;28;1960;-72
2021/03/24 03:00:35;;;;;;;;;;;;;;;4.57;82.49;102230.00;5057487;28;1067;-72
2021/03/24 03:03:26;;;;;;;;;;;;;;;4.55;83.06;102231.34;5056514;28;1765;-72
2021/03/24 03:05:56;;;;;;;;;;;;;;;4.51;82.70;102226.41;5048008;28;1215;-72
2021/03/24 03:08:31;;;;;;;;;;;;;;;4.50;82.80;102227.53;5038834;28;1778;-73
2021/03/24 03:11:06;;;;;;;;;;;;;;;4.50;83.03;102229.44;5057743;28;1048;-72
2021/03/24 03:13:43;;;;;;;;;;;;;;;4.48;82.83;102226.97;5056479;28;1837;-72
2021/03/24 03:16:31;;;;;;;;;;;;;;;4.47;82.38;102229.97;5056468;28;1734;-73
2021/03/24 03:19:16;;;;;;;;;;;;;;;4.47;82.36;102221.75;5028156;28;1959;-72
2021/03/24 03:21:46;;;;;;;;;;;;;;;4.45;82.81;102232.16;5041194;28;1811;-73
2021/03/24 03:24:12;;;;;;;;;;;;;;;4.43;82.33;102237.03;5056737;28;876;-72
2021/03/24 03:26:43;;;;;;;;;;;;;;;4.40;82.74;102232.13;5056320;28;1837;-72
2021/03/24 03:29:15;;;;;;;;;;;;;;;4.40;nan;102235.69;5056527;28;1267;-72
2021/03/24 03:31:43;;;;;;;;;;;;;;;4.40;82.29;102235.69;5056605;28;1861;-72
2021/03/24 03:34:11;;;;;;;;;;;;;;;4.42;82.27;102229.94;5038833;28;1447;-72
2021/03/24 03:36:40;;;;;;;;;;;;;;;4.39;81.98;102231.28;5056179;28;1900;-72
2021/03/24 03:39:11;;;;;;;;;;;;;;;4.40;82.41;102243.06;5055188;28;1967;-72
2021/03/24 03:41:37;;;;;;;;;;;;;;;4.39;82.71;102227.75;5055878;28;1843;-72
2021/03/24 03:44:05;;;;;;;;;;;;;;;4.38;82.66;102224.19;5056418;28;988;-72
2021/03/24 03:46:34;;;;;;;;;;;;;;;4.38;82.26;102224.19;5056332;28;2423;-73
2021/03/24 03:49:01;;;;;;;;;;;;;;;4.37;82.08;102219.81;5035774;28;1361;-72
2021/03/24 03:51:34;;;;;;;;;;;;;;;4.36;82.60;102229.13;5035967;28;806;-72
2021/03/24 03:54:13;;;;;;;;;;;;;;;4.35;82.29;102227.47;5056034;28;2313;-72
2021/03/24 03:57:32;;;;;;;;;;;;;;;4.33;81.98;102211.31;5055563;28;2113;-72
2021/03/24 04:00:12;;;;;;;;;;;;;;;4.29;82.33;102214.84;4992422;28;1316;-72
2021/03/24 04:02:45;;;;;;;;;;;;;;;4.28;82.87;102215.97;5055828;28;2009;-72
2021/03/24 04:05:17;;;;;;;;;;;;;;;4.27;82.91;102215.13;5056372;28;1064;-72
2021/03/24 04:07:47;;;;;;;;;;;;;;;4.26;82.75;102216.22;5055441;28;1877;-72
2021/03/24 04:10:13;;;;;;;;;;;;;;;4.25;82.80;102214.56;5038544;28;1342;-73
2021/03/24 04:12:40;;;;;;;;;;;;;;;4.24;82.75;102210.19;5037855;28;1897;-72
2021/03/24 04:15:14;;;;;;;;;;;;;;;4.25;82.52;102211.00;5055847;28;846;-72
2021/03/24 04:17:47;;;;;;;;;;;;;;;4.25;82.93;102219.22;5054996;28;1951;-72
2021/03/24 04:20:14;;;;;;;;;;;;;;;4.25;83.07;102211.00;5056038;28;1671;-72
2021/03/24 04:22:41;;;;;;;;;;;;;;;4.26;82.99;102220.88;5055285;28;1884;-72
2021/03/24 04:25:13;;;;;;;;;;;;;;;4.27;83.09;102211.56;5055611;28;842;-72
2021/03/24 04:27:39;;;;;;;;;;;;;;;4.27;82.74;102208.81;5055506;28;1817;-72
2021/03/24 04:30:12;;;;;;;;;;;;;;;4.27;82.81;102214.28;5037793;28;1565;-72
2021/03/24 04:32:37;;;;;;;;;;;;;;;4.25;83.07;102206.34;5055018;28;1750;-73
2021/03/24 04:35:05;;;;;;;;;;;;;;;4.27;82.99;102208.81;5054986;28;2033;-72
2021/03/24 04:37:34;;;;;;;;;;;;;;;4.25;83.30;102200.88;5054818;28;2068;-72
2021/03/24 04:40:21;;;;;;;;;;;;;;;4.23;82.74;102205.00;5054976;28;1829;-73
2021/03/24 04:43:09;;;;;;;;;;;;;;;4.22;83.53;102206.06;5055613;28;1028;-73
2021/03/24 04:45:54;;;;;;;;;;;;;;;4.24;83.41;102204.72;5054964;28;1897;-72
2021/03/24 04:48:33;;;;;;;;;;;;;;;4.24;83.10;102210.19;5054574;28;1372;-73
2021/03/24 04:51:11;;;;;;;;;;;;;;;4.23;83.47;102215.94;5054719;28;1920;-72
2021/03/24 04:53:45;;;;;;;;;;;;;;;4.22;83.54;102206.91;5055079;28;885;-72
2021/03/24 04:56:14;;;;;;;;;;;;;;;4.20;83.42;102202.78;5026311;28;1932;-73
2021/03/24 04:58:44;;;;;;;;;;;;;;;4.13;83.86;102216.69;5035379;28;1894;-73
2021/03/24 05:01:30;;;;;;;;;;;;;;;4.04;84.03;102216.38;5054413;28;1758;-72
2021/03/24 05:04:39;;;;;;;;;;;;;;;3.97;84.42;102213.06;5038267;28;1708;-73
2021/03/24 05:07:18;;;;;;;;;;;;;;;3.83;84.68;102217.38;5054322;28;1664;-73
2021/03/24 05:09:46;;;;;;;;;;;;;;;3.71;85.22;102221.13;5055388;28;1763;-72
2021/03/24 05:12:47;;;;;;;;;;;;;;;3.62;84.96;102214.53;5055827;28;934;-72
2021/03/24 05:15:20;;;;;;;;;;;;;;;3.53;85.83;102213.34;5004568;28;2551;-73
2021/03/24 05:17:47;;;;;;;;;;;;;;;3.49;85.87;102217.69;5036543;28;1965;-72
2021/03/24 05:20:36;;;;;;;;;;;;;;;3.45;85.73;102213.84;5028558;28;1976;-72
2021/03/24 05:23:07;;;;;;;;;;;;;;;3.38;86.20;102220.34;5054681;28;842;-72
2021/03/24 05:25:38;;;;;;;;;;;;;;;3.31;85.68;102213.47;5054556;28;1928;-72
2021/03/24 05:28:15;;;;;;;;;;;;;;;3.19;86.83;102213.66;5054774;28;1290;-72
2021/03/24 05:31:04;;;;;;;;;;;;;;;3.09;86.56;102205.38;5054281;28;1684;-73
2021/03/24 05:33:32;;;;;;;;;;;;;;;2.96;86.90;102212.91;5034130;28;1157;-73
2021/03/24 05:35:57;;;;;;;;;;;;;;;2.94;87.17;102216.97;5034861;28;855;-73
2021/03/24 05:38:23;;;;;;;;;;;;;;;2.93;87.43;102212.59;5048514;28;1955;-73
2021/03/24 05:40:54;;;;;;;;;;;;;;;2.97;87.31;102208.25;5036901;28;1208;-73
2021/03/24 05:43:53;;;;;;;;;;;;;;;2.98;87.73;102216.19;5054106;28;1798;-73
2021/03/24 05:46:40;;;;;;;;;;;;;;;3.04;87.34;102211.59;5054002;28;1810;-73
2021/03/24 05:49:25;;;;;;;;;;;;;;;3.26;87.04;102205.25;5054238;28;1270;-73
2021/03/24 05:52:07;;;;;;;;;;;;;;;3.67;84.81;102214.56;5023013;28;1841;-74
2021/03/24 05:54:45;;;;;;;;;;;;;;;4.16;83.01;102209.88;5034151;28;1171;-73
2021/03/24 05:57:23;;;;;;;;;;;;;;;4.43;81.91;102204.22;5053114;28;1965;-74
2021/03/24 06:00:01;;;;;;;;;;;;;;;4.78;80.13;102210.91;5054397;28;1298;-73
2021/03/24 06:02:38;;;;;;;;;;;;;;;5.04;78.83;102207.09;5036631;28;1193;-73
2021/03/24 06:05:12;;;;;;;;;;;;;;;5.31;77.98;102208.72;5039147;28;1614;-73
2021/03/24 06:07:58;;;;;;;;;;;;;;;5.58;76.92;102210.34;5057927;28;1000;-72
2021/03/24 06:10:51;;;;;;;;;;;;;;;5.67;76.10;102229.78;5057722;28;1928;-72
2021/03/24 06:13:26;;;;;;;;;;;;;;;5.64;76.30;102223.78;5057976;28;955;-72
2021/03/24 06:16:23;;;;;;;;;;;;;;;4.97;77.84;102213.94;5057828;28;1894;-73
2021/03/24 06:19:18;;;;;;;;;;;;;;;4.63;79.91;102212.50;5057734;28;1897;-72
2021/03/24 06:22:06;;;;;;;;;;;;;;;4.50;80.51;102215.75;5049476;28;1917;-72
2021/03/24 06:25:09;;;;;;;;;;;;;;;4.48;80.83;102215.19;5057512;28;1585;-72
2021/03/24 06:27:56;;;;;;;;;;;;;;;4.35;81.62;102216.53;5057098;28;1040;-72
2021/03/24 06:30:34;;;;;;;;;;;;;;;4.12;81.88;102213.16;5057332;28;1752;-72
2021/03/24 06:33:19;;;;;;;;;;;;;;;4.00;82.67;102217.16;5057532;28;1866;-72
2021/03/24 06:35:44;;;;;;;;;;;;;;;4.01;82.49;102219.66;5057482;28;1876;-72
2021/03/24 06:38:22;;;;;;;;;;;;;;;4.11;82.67;102214.22;5057539;28;1955;-73
2021/03/24 06:41:26;;;;;;;;;;;;;;;4.21;82.61;102204.44;5057661;28;1833;-72
2021/03/24 06:44:13;;;;;;;;;;;;;;;4.37;82.02;102217.06;5057123;28;979;-72
2021/03/24 06:46:58;;;;;;;;;;;;;;;4.61;80.99;102216.59;5057495;28;1842;-72
2021/03/24 06:49:57;;;;;;;;;;;;;;;4.79;80.13;102207.06;5038897;28;1566;-73
2021/03/24 06:52:57;;;;;;;;;;;;;;;5.48;78.65;102213.91;5057120;28;825;-72
2021/03/24 06:55:50;;;;;;;;;;;;;;;5.83;76.79;102213.03;5056799;28;1790;-72
2021/03/24 06:58:39;;;;;;;;;;;;;;;5.78;76.71;102210.31;5056738;28;1910;-73
2021/03/24 07:01:29;;;;;;;;;;;;;;;5.72;77.14;102205.94;5056805;28;2067;-72
2021/03/24 07:04:10;;;;;;;;;;;;;;;6.04;76.18;102204.78;5056982;28;1706;-72
2021/03/24 07:06:44;;;;;;;;;;;;;;;6.83;74.22;102204.91;5056691;28;992;-72
2021/03/24 07:09:23;;;;;;;;;;;;;;;7.58;71.69;102198.25;5056356;28;1585;-72
2021/03/24 07:12:10;;;;;;;;;;;;;;;8.33;69.26;102202.34;5056948;28;1058;-72
2021/03/24 07:14:50;;;;;;;;;;;;;;;8.57;67.31;102207.03;5055208;28;1601;-72
2021/03/24 07:17:36;;;;;;;;;;;;;;;7.36;69.82;102203.44;5055920;28;1988;-72
2021/03/24 07:20:23;;;;;;;;;;;;;;;6.71;72.51;102204.44;5056675;28;1392;-72
2021/03/24 07:23:02;;;;;;;;;;;;;;;6.72;72.46;102204.16;5057125;28;1055;-72
2021/03/24 07:25:41;;;;;;;;;;;;;;;6.92;72.62;102197.72;5056615;28;1058;-72
2021/03/24 07:28:48;;;;;;;;;;;;;;;7.04;71.96;102207.53;5056329;28;1298;-72
2021/03/24 07:31:35;;;;;;;;;;;;;;;7.19;72.05;102209.34;5056447;28;1004;-72
2021/03/24 07:34:18;;;;;;;;;;;;;;;6.97;72.01;102205.09;5056325;28;992;-72
2021/03/24 07:37:06;;;;;;;;;;;;;;;6.76;72.68;102207.16;5056830;28;552;-72
2021/03/24 07:39:40;;;;;;;;;;;;;;;6.81;73.09;102209.06;5055807;28;1981;-72
2021/03/24 07:42:48;;;;;;;;;;;;;;;7.02;73.00;102201.50;5055817;28;1012;-72
2021/03/24 07:45:43;;;;;;;;;;;;;;;7.34;72.14;102190.78;5056173;28;814;-72
2021/03/24 07:48:27;;;;;;;;;;;;;;;7.40;71.56;102193.50;5055691;28;1310;-72
2021/03/24 07:51:14;;;;;;;;;;;;;;;7.53;71.14;102195.56;5055683;28;846;-72
2021/03/24 07:53:46;;;;;;;;;;;;;;;7.58;70.82;102200.16;5055882;28;893;-72
2021/03/24 07:56:25;;;;;;;;;;;;;;;7.61;70.92;102202.34;5056787;28;1218;-72
2021/03/24 07:59:28;;;;;;;;;;;;;;;7.63;71.69;102189.97;5055508;28;1890;-72
2021/03/24 08:02:26;;;;;;;;;;;;;;;7.72;71.41;102190.16;5055658;28;988;-72
2021/03/24 08:05:10;;;;;;;;;;;;;;;8.03;70.65;102187.88;5055465;28;888;-72
2021/03/24 08:07:53;;;;;;;;;;;;;;;8.28;69.48;102194.97;5055386;28;935;-72
2021/03/24 08:10:22;;;;;;;;;;;;;;;8.42;69.29;102197.84;5055415;28;1436;-72
2021/03/24 08:13:12;;;;;;;;;;;;;;;8.51;68.49;102189.72;5055458;28;884;-72
2021/03/24 08:15:51;;;;;;;;;;;;;;;9.42;66.58;102180.31;5055343;28;988;-73
2021/03/24 08:18:30;;;;;;;;;;;;;;;10.69;62.60;102178.84;5055126;28;1956;-72
2021/03/24 08:21:14;;;;;;;;;;;;;;;12.10;58.29;102170.22;5055401;28;861;-72
2021/03/24 08:23:52;;;;;;;;;;;;;;;12.38;55.96;102161.63;5055373;28;987;-72
2021/03/24 08:26:24;;;;;;;;;;;;;;;12.37;56.12;102177.44;5055223;28;833;-72
2021/03/24 08:29:00;;;;;;;;;;;;;;;15.16;49.15;102177.44;5054837;28;1282;-72
2021/03/24 08:32:00;;;;;;;;;;;;;;;16.43;45.16;102166.50;5055220;28;893;-72
2021/03/24 08:34:36;;;;;;;;;;;;;;;16.66;43.50;102164.00;5055226;28;889;-72
2021/03/24 08:37:20;;;;;;;;;;;;;;;17.74;41.35;102158.56;5055063;28;778;-73
2021/03/24 08:40:23;;;;;;;;;;;;;;;18.91;38.54;102165.22;5054916;28;1392;-72
2021/03/24 08:43:33;;;;;;;;;;;;;;;17.97;40.56;102153.16;5055122;28;964;-73
2021/03/24 08:46:24;;;;;;;;;;;;;;;18.21;39.46;102163.28;5051730;28;1438;-73
2021/03/24 08:49:21;;;;;;;;;;;;;;;18.31;38.42;102164.72;5054531;28;1302;-73
2021/03/24 08:52:02;;;;;;;;;;;;;;;18.32;38.54;102161.53;5054844;28;813;-73
2021/03/24 08:54:49;;;;;;;;;;;;;;;18.90;37.19;102165.59;5054736;28;854;-74
2021/03/24 08:57:49;;;;;;;;;;;;;;;18.44;37.79;102154.22;5054473;28;1894;-73
2021/03/24 09:00:31;;;;;;;;;;;;;;;20.19;34.81;102147.38;5036887;28;1511;-74
2021/03/24 09:03:33;;;;;;;;;;;;;;;20.51;34.23;102144.22;5055054;28;945;-73
2021/03/24 09:06:16;;;;;;;;;;;;;;;20.13;34.56;102138.50;5055024;28;1074;-73
2021/03/24 09:09:08;;;;;;;;;;;;;;;19.29;35.56;102154.31;5056464;28;1298;-74
2021/03/24 09:11:53;;;;;;;;;;;;;;;20.59;33.65;102149.53;5037191;28;727;-73
2021/03/24 09:14:36;;;;;;;;;;;;;;;20.53;34.02;102133.44;5054769;28;805;-73
2021/03/24 09:17:04;;;;;;;;;;;;;;;19.77;35.21;102139.97;5054712;28;809;-74
2021/03/24 09:20:09;;;;;;;;;;;;;;;21.29;32.58;102127.47;5054281;28;1951;-73
2021/03/24 09:23:03;;;;;;;;;;;;;;;22.44;30.83;102127.50;5054625;28;1027;-73
2021/03/24 09:25:46;;;;;;;;;;;;;;;20.20;33.98;102132.19;5054558;28;850;-71
2021/03/24 09:28:27;;;;;;;;;;;;;;;20.83;33.05;102134.22;5054280;28;1235;-72
2021/03/24 09:31:27;;;;;;;;;;;;;;;20.94;32.61;102128.72;5054609;28;877;-73
2021/03/24 09:34:07;;;;;;;;;;;;;;;20.40;33.29;102133.66;5036365;28;829;-72
2021/03/24 09:36:50;;;;;;;;;;;;;;;19.59;34.68;102140.44;5054850;28;1348;-71
2021/03/24 09:39:18;;;;;;;;;;;;;;;20.10;34.14;102131.63;5057972;28;1898;-73
2021/03/24 09:41:56;;;;;;;;;;;;;;;20.00;33.89;102125.88;5058282;28;817;-71
2021/03/24 09:44:32;;;;;;;;;;;;;;;20.85;33.19;102123.41;5058307;28;829;-73
2021/03/24 09:46:58;;;;;;;;;;;;;;;23.25;29.38;102128.16;5058292;28;834;-73
2021/03/24 09:49:27;;;;;;;;;;;;;;;24.40;26.99;102105.47;5057684;28;1325;-71
2021/03/24 09:52:21;;;;;;;;;;;;;;;24.65;26.98;102115.88;5058029;28;852;-71
2021/03/24 09:55:05;;;;;;;;;;;;;;;23.61;28.29;102119.72;5058152;28;976;-71
2021/03/24 09:58:01;;;;;;;;;;;;;;;21.98;30.00;102128.84;5057722;28;1953;-71
2021/03/24 10:00:29;;;;;;;;;;;;;;;21.80;30.49;102114.66;5057812;28;1003;-71
2021/03/24 10:03:16;;;;;;;;;;;;;;;21.17;31.34;102120.13;5057747;28;844;-71
2021/03/24 10:05:56;;;;;;;;;;;;;;;22.71;29.03;102100.66;5058298;28;869;-71
2021/03/24 10:08:33;;;;;;;;;;;;;;;23.21;28.08;102125.34;5057601;28;1667;-72
2021/03/24 10:11:04;;;;;;;;;;;;;;;21.13;31.63;102122.09;5057989;28;1003;-72
2021/03/24 10:13:37;;;;;;;;;;;;;;;22.78;28.75;102119.59;5057382;28;775;-72
2021/03/24 10:16:34;;;;;;;;;;;;;;;20.87;31.64;102117.44;5057469;28;794;-72
2021/03/24 10:19:16;;;;;;;;;;;;;;;18.59;35.19;102122.56;5056415;28;1944;-74
2021/03/24 10:21:48;;;;;;;;;;;;;;;18.35;35.76;102109.69;5057726;28;794;-72
2021/03/24 10:24:21;;;;;;;;;;;;;;;19.92;32.82;102114.56;5057535;28;861;-73
2021/03/24 10:26:52;;;;;;;;;;;;;;;20.74;31.63;102107.66;5057200;28;902;-73
2021/03/24 10:29:28;;;;;;;;;;;;;;;21.31;30.17;102105.41;5057125;28;1333;-71
2021/03/24 10:32:02;;;;;;;;;;;;;;;19.39;33.04;102111.69;5057254;28;948;-73
2021/03/24 10:34:35;;;;;;;;;;;;;;;20.46;31.21;102114.50;5057373;28;850;-73
2021/03/24 10:37:28;;;;;;;;;;;;;;;21.19;29.95;102098.06;5057102;28;1027;-74
2021/03/24 10:40:00;;;;;;;;;;;;;;;21.38;30.12;102087.81;5057241;28;1267;-72
2021/03/24 10:42:35;;;;;;;;;;;;;;;22.44;28.67;102082.47;5057312;28;869;-72
2021/03/24 10:45:27;;;;;;;;;;;;;;;23.90;26.17;102077.41;5056834;28;840;-71
2021/03/24 10:48:16;;;;;;;;;;;;;;;22.32;27.97;102078.00;5055726;28;1167;-72
2021/03/24 10:50:56;;;;;;;;;;;;;;;21.95;28.90;102079.81;5056832;28;837;-71
2021/03/24 10:53:31;;;;;;;;;;;;;;;19.07;33.14;102083.16;5057053;28;876;-71
2021/03/24 10:56:13;;;;;;;;;;;;;;;19.00;34.59;102080.19;5056916;28;896;-73
2021/03/24 10:58:48;;;;;;;;;;;;;;;21.23;30.39;102079.28;5056513;28;1902;-73
2021/03/24 11:01:20;;;;;;;;;;;;;;;22.80;27.96;102089.03;5057521;28;833;-72
2021/03/24 11:04:13;;;;;;;;;;;;;;;22.42;27.90;102070.81;5056860;28;992;-72
2021/03/24 11:06:49;;;;;;;;;;;;;;;20.34;31.11;102067.88;5056445;28;794;-72
2021/03/24 11:09:21;;;;;;;;;;;;;;;20.20;31.73;102065.69;5056703;28;1290;-72
2021/03/24 11:12:04;;;;;;;;;;;;;;;22.53;28.17;102066.03;5056790;28;826;-72
2021/03/24 11:14:55;;;;;;;;;;;;;;;22.54;27.62;102067.66;5056738;28;833;-72
2021/03/24 11:17:26;;;;;;;;;;;;;;;22.34;29.29;102053.13;5056344;28;1949;-72
2021/03/24 11:20:02;;;;;;;;;;;;;;;23.81;26.10;102058.91;5056603;28;1409;-72
2021/03/24 11:22:43;;;;;;;;;;;;;;;23.62;26.66;102051.66;5056654;28;794;-71
2021/03/24 11:25:31;;;;;;;;;;;;;;;21.47;29.85;102059.41;5056725;28;802;-72
2021/03/24 11:28:03;;;;;;;;;;;;;;;21.97;29.23;102046.50;5056152;28;822;-72
2021/03/24 11:30:37;;;;;;;;;;;;;;;21.45;30.46;102050.53;5056748;28;727;-71
2021/03/24 11:33:14;;;;;;;;;;;;;;;21.77;29.12;102051.59;5056199;28;822;-72
2021/03/24 11:36:21;;;;;;;;;;;;;;;22.85;27.54;102048.41;5056419;28;1012;-71
2021/03/24 11:39:07;;;;;;;;;;;;;;;23.10;27.50;102040.03;5047569;28;1897;-72
2021/03/24 11:41:36;;;;;;;;;;;;;;;23.59;26.49;102040.41;5055941;28;905;-71
2021/03/24 11:44:10;;;;;;;;;;;;;;;23.18;26.57;102041.63;5055737;28;925;-71
2021/03/24 11:46:41;;;;;;;;;;;;;;;24.73;24.09;102032.72;5055795;28;865;-72
2021/03/24 11:49:28;;;;;;;;;;;;;;;24.68;24.09;102031.13;5055450;28;1246;-72
2021/03/24 11:52:15;;;;;;;;;;;;;;;23.35;26.30;102036.41;5055817;28;1058;-72
2021/03/24 11:54:46;;;;;;;;;;;;;;;23.07;25.97;102032.38;5056157;28;829;-73
2021/03/24 11:57:33;;;;;;;;;;;;;;;22.68;27.21;102044.34;5055902;28;959;-72
2021/03/24 12:00:22;;;;;;;;;;;;;;;20.99;30.07;102030.13;5055079;28;1294;-72
2021/03/24 12:02:47;;;;;;;;;;;;;;;23.43;26.86;102030.34;5055604;28;849;-71
2021/03/24 12:05:34;;;;;;;;;;;;;;;23.63;26.05;102013.78;5055516;28;881;-71
2021/03/24 12:08:14;;;;;;;;;;;;;;;23.11;27.43;102012.66;5054767;28;2171;-71
2021/03/24 12:10:42;;;;;;;;;;;;;;;22.18;26.74;102016.84;5056435;28;1982;-71
2021/03/24 12:13:26;;;;;;;;;;;;;;;21.75;28.45;102008.19;5055551;28;2121;-71
2021/03/24 12:16:02;;;;;;;;;;;;;;;22.53;28.04;102012.59;5056155;28;950;-71
2021/03/24 12:18:46;;;;;;;;;;;;;;;23.82;26.47;102000.47;5054920;28;1898;-70
2021/03/24 12:21:20;;;;;;;;;;;;;;;23.23;26.44;101998.97;5054909;28;1914;-70
2021/03/24 12:23:47;;;;;;;;;;;;;;;22.06;27.84;102001.16;5054435;28;1987;-70
2021/03/24 12:26:24;;;;;;;;;;;;;;;20.57;30.17;101996.78;5052461;28;2166;-71
2021/03/24 12:28:50;;;;;;;;;;;;;;;20.91;29.91;101989.13;5054748;28;2240;-70
2021/03/24 12:31:21;;;;;;;;;;;;;;;21.50;28.63;101994.81;5054463;28;2680;-71
2021/03/24 12:33:51;;;;;;;;;;;;;;;21.62;28.06;101993.69;5038108;28;1190;-70
2021/03/24 12:36:21;;;;;;;;;;;;;;;21.96;27.68;101987.84;5054608;28;2284;-70
2021/03/24 12:38:52;;;;;;;;;;;;;;;23.98;26.66;101977.44;5054753;28;2203;-70
2021/03/24 12:41:45;;;;;;;;;;;;;;;24.89;22.87;101987.81;5054628;28;1907;-70
2021/03/24 12:44:21;;;;;;;;;;;;;;;22.73;26.23;101991.28;5055049;28;919;-70
2021/03/24 12:46:50;;;;;;;;;;;;;;;22.23;27.33;101976.28;5054561;28;2089;-70
2021/03/24 12:49:22;;;;;;;;;;;;;;;22.83;26.67;101972.00;5040657;28;2132;-71
2021/03/24 12:52:01;;;;;;;;;;;;;;;23.05;25.51;101973.63;5054108;28;2066;-71
2021/03/24 12:54:26;;;;;;;;;;;;;;;22.38;25.34;101969.53;5035342;28;715;-71
2021/03/24 12:57:23;;;;;;;;;;;;;;;23.72;23.69;101979.53;5042480;28;1994;-71
2021/03/24 13:00:14;;;;;;;;;;;;;;;23.47;24.82;101971.16;5043454;28;2098;-71
2021/03/24 13:02:41;;;;;;;;;;;;;;;22.51;26.24;101973.56;5054520;28;2080;-71
2021/03/24 13:05:36;;;;;;;;;;;;;;;22.59;27.08;101959.50;5054960;28;837;-72
2021/03/24 13:08:02;;;;;;;;;;;;;;;23.44;26.11;101952.25;5055068;28;2293;-71
2021/03/24 13:10:37;;;;;;;;;;;;;;;22.72;26.09;101964.34;5055179;28;909;-71
2021/03/24 13:13:34;;;;;;;;;;;;;;;23.58;25.15;101957.03;5055430;28;926;-70
2021/03/24 13:16:03;;;;;;;;;;;;;;;23.71;24.11;101963.03;5052663;28;2179;-71
2021/03/24 13:18:43;;;;;;;;;;;;;;;23.61;23.35;101968.28;5034495;28;2053;-71
2021/03/24 13:21:18;;;;;;;;;;;;;;;23.77;25.03;101958.56;5034944;28;976;-71
2021/03/24 13:24:17;;;;;;;;;;;;;;;24.95;22.04;101938.13;5052880;28;2162;-71
2021/03/24 13:26:43;;;;;;;;;;;;;;;25.41;21.13;101944.56;5034963;28;832;-71
2021/03/24 13:29:47;;;;;;;;;;;;;;;23.72;23.86;101928.78;5034588;28;1290;-71
2021/03/24 13:32:15;;;;;;;;;;;;;;;24.15;23.04;101944.72;5041979;28;2252;-70
2021/03/24 13:34:55;;;;;;;;;;;;;;;23.07;24.23;101953.53;5053973;28;2070;-71
2021/03/24 13:37:23;;;;;;;;;;;;;;;23.06;24.33;101946.25;5054420;28;1898;-71
2021/03/24 13:39:54;;;;;;;;;;;;;;;22.44;25.35;101953.03;5054258;28;2073;-71
2021/03/24 13:42:40;;;;;;;;;;;;;;;23.47;23.66;101940.16;5054276;28;881;-71
2021/03/24 13:45:14;;;;;;;;;;;;;;;21.76;25.83;101936.75;5054520;28;980;-71
2021/03/24 13:47:50;;;;;;;;;;;;;;;21.86;27.19;101935.19;5053748;28;2098;-71